Scipio, Oklahoma
Current Conditions -  °F | °C
As of 9:53 PM on Saturday 25 Oct 2014 (Local Time) from KMLC Reporting Station
Few Clouds Few Clouds  
Wind Chill: 70°   Ceiling: Unl
Heat Index: 70°   Visibility: 10mi
Dew Point: 63°   Wind: 5mph
Humidity: 78%   Direction: 230°SW
Pressure: 30.04"   Gusts: NA
Location:  34.9351°N, 95.8929°W
Report Text: KMLC 260253Z AUTO 23004KT 10SM FEW065 FEW095 21/17 A3004 RMK AO2 SLP164 T02110172 51003
Loading
Personal Weather Stations






























Interactive Weather Map
Tropical Storm Tracking
New forecast layout! Learn more

10-Day Weather Forecast

Advertisements
Track Severe Weather on mobile